createdAt,value
2023-04-09T00:01:22.294Z,101340.47
2023-04-09T00:03:49.627Z,101336.34
2023-04-09T00:06:18.308Z,101350.06
2023-04-09T00:08:45.570Z,101338.25
2023-04-09T00:11:13.152Z,101346.75
2023-04-09T00:13:40.452Z,101346.38
2023-04-09T00:16:08.383Z,101351.81
2023-04-09T00:18:36.174Z,101349.72
2023-04-09T00:21:03.494Z,101346.06
2023-04-09T00:23:32.081Z,101347.25
2023-04-09T00:25:59.345Z,101342.81
2023-04-09T00:28:26.682Z,101344.59
2023-04-09T00:30:53.939Z,101339.22
2023-04-09T00:33:21.198Z,101335.03
2023-04-09T00:35:48.493Z,101331.28
2023-04-09T00:38:16.351Z,101331.84
2023-04-09T00:40:44.992Z,101337.13
2023-04-09T00:43:12.267Z,101340.44
2023-04-09T00:45:39.587Z,101345.34
2023-04-09T00:48:06.928Z,101345.34
2023-04-09T00:50:34.194Z,101335.06
2023-04-09T00:53:01.991Z,101335.50
2023-04-09T00:55:29.984Z,101327.06
2023-04-09T00:57:58.602Z,101326.56
2023-04-09T01:00:27.630Z,101325.88
2023-04-09T01:02:57.423Z,101335.72
2023-04-09T01:05:25.715Z,101346.06
2023-04-09T01:07:59.910Z,101343.53
2023-04-09T01:10:31.921Z,101346.00
2023-04-09T01:13:08.211Z,101343.84
2023-04-09T01:15:37.541Z,101341.09
2023-04-09T01:18:07.264Z,101329.34
2023-04-09T01:20:36.535Z,101335.06
2023-04-09T01:23:08.740Z,101326.91
2023-04-09T01:25:44.725Z,101340.72
2023-04-09T01:28:17.762Z,101370.91
2023-04-09T01:30:47.564Z,101364.44
2023-04-09T01:33:15.470Z,101357.88
2023-04-09T01:35:44.579Z,101361.31
2023-04-09T01:38:12.210Z,101356.06
2023-04-09T01:40:39.862Z,101339.22
2023-04-09T01:43:08.655Z,101339.88
2023-04-09T01:45:37.410Z,101347.25
2023-04-09T01:48:05.770Z,101359.34
2023-04-09T01:50:33.329Z,101346.13
2023-04-09T01:53:01.227Z,101347.31
2023-04-09T01:55:28.502Z,101354.91
2023-04-09T01:57:55.844Z,101359.06
2023-04-09T02:00:24.151Z,101351.59
2023-04-09T02:02:56.484Z,101359.34
2023-04-09T02:05:27.093Z,101357.38
2023-04-09T02:07:56.805Z,101357.22
2023-04-09T02:10:25.677Z,101353.31
2023-04-09T02:12:53.351Z,101366.47
2023-04-09T02:15:21.007Z,101362.50
2023-04-09T02:17:48.368Z,101358.44
2023-04-09T02:20:18.835Z,101354.53
2023-04-09T02:22:46.148Z,101358.50
2023-04-09T02:25:13.491Z,101359.09
2023-04-09T02:27:40.752Z,101359.66
2023-04-09T02:30:08.631Z,101358.69
2023-04-09T02:32:35.969Z,101363.16
2023-04-09T02:35:03.529Z,101364.72
2023-04-09T02:37:32.203Z,101358.50
2023-04-09T02:39:59.564Z,101362.78
2023-04-09T02:42:26.839Z,101357.06
2023-04-09T02:44:54.117Z,101364.50
2023-04-09T02:47:21.437Z,101359.91
2023-04-09T02:49:48.701Z,101364.06
2023-04-09T02:52:15.989Z,101371.88
2023-04-09T02:54:44.558Z,101370.97
2023-04-09T02:57:11.838Z,101369.31
2023-04-09T02:59:40.629Z,101367.00
2023-04-09T03:02:07.985Z,101369.78
2023-04-09T03:04:35.316Z,101375.69
2023-04-09T03:07:02.618Z,101372.75
2023-04-09T03:09:30.326Z,101364.31
2023-04-09T03:11:58.944Z,101362.28
2023-04-09T03:14:26.228Z,101362.81
2023-04-09T03:16:53.498Z,101352.56
2023-04-09T03:19:20.764Z,101352.56
2023-04-09T03:21:49.205Z,101354.25
2023-04-09T03:24:16.638Z,101359.69
2023-04-09T03:26:43.940Z,101369.66
2023-04-09T03:29:12.513Z,101363.91
2023-04-09T03:31:39.875Z,101366.25
2023-04-09T03:34:07.239Z,101368.94
2023-04-09T03:36:34.544Z,101368.81
2023-04-09T03:39:01.960Z,101363.34
2023-04-09T03:41:29.232Z,101363.03
2023-04-09T03:43:56.774Z,101366.66
2023-04-09T03:46:25.420Z,101369.50
2023-04-09T03:48:52.999Z,101368.75
2023-04-09T03:51:20.420Z,101362.03
2023-04-09T03:53:47.689Z,101362.16
2023-04-09T03:56:14.951Z,101359.63
2023-04-09T03:58:42.217Z,101359.75
2023-04-09T04:01:09.497Z,101371.31
2023-04-09T04:03:38.219Z,101366.56
2023-04-09T04:06:05.728Z,101366.66
2023-04-09T04:08:33.018Z,101368.44
2023-04-09T04:11:03.938Z,101364.19
2023-04-09T04:13:31.267Z,101368.47
2023-04-09T04:15:58.559Z,101366.25
2023-04-09T04:18:26.051Z,101359.22
2023-04-09T04:20:54.622Z,101365.41
2023-04-09T04:23:21.872Z,101364.66
2023-04-09T04:25:49.278Z,101360.50
2023-04-09T04:28:16.540Z,101369.34
2023-04-09T04:30:43.829Z,101364.53
2023-04-09T04:33:11.346Z,101370.25
2023-04-09T04:35:38.703Z,101372.78
2023-04-09T04:38:07.366Z,101374.81
2023-04-09T04:40:36.740Z,101380.00
2023-04-09T04:43:03.987Z,101380.13
2023-04-09T04:45:31.285Z,101380.78
2023-04-09T04:47:58.652Z,101379.00
2023-04-09T04:50:26.050Z,101385.31
2023-04-09T04:52:53.338Z,101386.16
2023-04-09T04:55:21.908Z,101377.69
2023-04-09T04:57:51.113Z,101378.56
2023-04-09T05:00:18.808Z,101378.63
2023-04-09T05:02:46.208Z,101381.16
2023-04-09T05:05:13.649Z,101387.25
2023-04-09T05:07:40.921Z,101390.50
2023-04-09T05:10:09.130Z,101387.09
2023-04-09T05:12:37.772Z,101393.16
2023-04-09T05:15:05.762Z,101383.81
2023-04-09T05:17:33.107Z,101384.66
2023-04-09T05:20:00.546Z,101377.47
2023-04-09T05:22:27.922Z,101387.03
2023-04-09T05:24:55.172Z,101382.31
2023-04-09T05:27:24.224Z,101383.94
2023-04-09T05:29:52.889Z,101384.41
2023-04-09T05:32:20.222Z,101388.16
2023-04-09T05:34:47.541Z,101390.59
2023-04-09T05:37:14.938Z,101395.88
2023-04-09T05:39:42.186Z,101395.25
2023-04-09T05:42:09.455Z,101404.00
2023-04-09T05:44:36.976Z,101404.53
2023-04-09T05:47:05.876Z,101397.09
2023-04-09T05:49:33.151Z,101401.28
2023-04-09T05:52:00.434Z,101404.47
2023-04-09T05:54:27.737Z,101402.97
2023-04-09T05:56:54.979Z,101399.06
2023-04-09T05:59:22.592Z,101396.50
2023-04-09T06:01:49.901Z,101399.97
2023-04-09T06:04:18.648Z,101391.91
2023-04-09T06:06:47.040Z,101393.34
2023-04-09T06:09:14.301Z,101381.47
2023-04-09T06:11:41.628Z,101378.56
2023-04-09T06:14:08.938Z,101373.00
2023-04-09T06:16:36.422Z,101391.19
2023-04-09T06:19:03.689Z,101378.91
2023-04-09T06:21:32.330Z,101388.50
2023-04-09T06:23:59.663Z,101392.63
2023-04-09T06:26:27.020Z,101379.81
2023-04-09T06:28:54.532Z,101390.13
2023-04-09T06:31:21.817Z,101381.13
2023-04-09T06:33:49.106Z,101381.75
2023-04-09T06:36:16.487Z,101388.41
2023-04-09T06:38:45.212Z,101374.81
2023-04-09T06:41:12.826Z,101381.97
2023-04-09T06:43:40.868Z,101386.56
2023-04-09T06:46:08.621Z,101391.84
2023-04-09T06:48:35.939Z,101389.03
2023-04-09T06:51:03.269Z,101389.56
2023-04-09T06:53:30.573Z,101387.66
2023-04-09T06:55:59.143Z,101397.09
2023-04-09T06:58:26.742Z,101396.28
2023-04-09T07:00:54.582Z,101397.03
2023-04-09T07:03:22.031Z,101395.03
2023-04-09T07:05:49.630Z,101400.19
2023-04-09T07:08:16.977Z,101402.00
2023-04-09T07:10:44.238Z,101404.16
2023-04-09T07:13:12.826Z,101395.72
2023-04-09T07:15:41.715Z,101401.38
2023-04-09T07:18:09.940Z,101398.47
2023-04-09T07:20:37.369Z,101404.41
2023-04-09T07:23:04.949Z,101400.56
2023-04-09T07:25:32.311Z,101398.50
2023-04-09T07:27:59.625Z,101399.81
2023-04-09T07:30:28.324Z,101405.78
2023-04-09T07:32:56.090Z,101403.50
2023-04-09T07:35:23.381Z,101402.91
2023-04-09T07:37:50.687Z,101401.31
2023-04-09T07:40:17.970Z,101403.78
2023-04-09T07:42:45.263Z,101403.53
2023-04-09T07:45:12.591Z,101402.97
2023-04-09T07:47:42.037Z,101408.13
2023-04-09T07:50:09.930Z,101403.69
2023-04-09T07:52:37.217Z,101402.66
2023-04-09T07:55:04.802Z,101395.78
2023-04-09T07:57:32.265Z,101397.69
2023-04-09T07:59:59.620Z,101395.97
2023-04-09T08:02:27.193Z,101397.56
2023-04-09T08:04:56.348Z,101395.16
2023-04-09T08:07:24.000Z,101389.03
2023-04-09T08:09:51.353Z,101387.94
2023-04-09T08:12:18.756Z,101384.91
2023-04-09T08:14:46.336Z,101377.41
2023-04-09T08:17:13.605Z,101376.59
2023-04-09T08:19:42.114Z,101388.16
2023-04-09T08:22:11.237Z,101390.81
2023-04-09T08:24:40.123Z,101391.63
2023-04-09T08:27:07.413Z,101390.84
2023-04-09T08:29:34.806Z,101391.84
2023-04-09T08:32:02.183Z,101402.88
2023-04-09T08:34:29.531Z,101408.75
2023-04-09T08:36:56.864Z,101411.84
2023-04-09T08:39:26.068Z,101410.50
2023-04-09T08:41:53.364Z,101405.91
2023-04-09T08:44:22.041Z,101411.84
2023-04-09T08:46:49.864Z,101408.91
2023-04-09T08:49:17.154Z,101395.72
2023-04-09T08:51:46.887Z,101398.53
2023-04-09T08:54:15.693Z,101396.59
2023-04-09T08:56:44.292Z,101400.69
2023-04-09T08:59:11.549Z,101389.22
2023-04-09T09:01:38.910Z,101399.63
2023-04-09T09:04:07.009Z,101398.13
2023-04-09T09:06:35.598Z,101399.53
2023-04-09T09:09:04.222Z,101394.03
2023-04-09T09:11:31.548Z,101405.00
2023-04-09T09:14:01.000Z,101406.34
2023-04-09T09:16:28.403Z,101391.78
2023-04-09T09:18:56.993Z,101402.69
2023-04-09T09:21:24.937Z,101390.25
2023-04-09T09:23:52.209Z,101397.84
2023-04-09T09:26:20.615Z,101383.06
2023-04-09T09:28:49.104Z,101394.16
2023-04-09T09:31:18.779Z,101388.09
2023-04-09T09:33:46.729Z,101390.19
2023-04-09T09:36:14.150Z,101385.34
2023-04-09T09:38:57.138Z,101387.28
2023-04-09T09:41:24.750Z,101374.75
2023-04-09T09:43:52.600Z,101368.28
2023-04-09T09:46:21.877Z,101369.50
2023-04-09T09:48:49.818Z,101373.78
2023-04-09T09:51:17.674Z,101366.94
2023-04-09T09:53:47.714Z,101372.22
2023-04-09T09:56:17.645Z,101368.59
2023-04-09T09:58:48.129Z,101366.06
2023-04-09T10:01:18.397Z,101354.19
2023-04-09T10:03:47.176Z,101346.41
2023-04-09T10:06:15.619Z,101354.31
2023-04-09T10:08:43.941Z,101361.25
2023-04-09T10:11:12.122Z,101356.53
2023-04-09T10:13:40.758Z,101360.13
2023-04-09T10:16:08.564Z,101355.41
2023-04-09T10:18:36.511Z,101351.34
2023-04-09T10:21:10.359Z,101346.22
2023-04-09T10:23:43.481Z,101339.03
2023-04-09T10:26:11.198Z,101341.06
2023-04-09T10:28:39.028Z,101345.47
2023-04-09T10:31:06.701Z,101344.75
2023-04-09T10:33:34.543Z,101330.56
2023-04-09T10:36:04.422Z,101339.16
2023-04-09T10:38:37.506Z,101327.03
2023-04-09T10:41:13.850Z,101324.16
2023-04-09T10:43:41.365Z,101312.66
2023-04-09T10:46:10.832Z,101320.38
2023-04-09T10:48:38.131Z,101324.84
2023-04-09T10:51:07.125Z,101322.31
2023-04-09T10:53:34.567Z,101316.56
2023-04-09T10:56:15.814Z,101312.31
2023-04-09T10:58:43.078Z,101314.84
2023-04-09T11:01:10.320Z,101312.06
2023-04-09T11:03:45.964Z,101306.34
2023-04-09T11:06:17.627Z,101316.16
2023-04-09T11:08:45.284Z,101311.34
2023-04-09T11:11:13.872Z,101317.38
2023-04-09T11:13:41.848Z,101313.75
2023-04-09T11:16:09.132Z,101307.13
2023-04-09T11:18:37.033Z,101315.78
2023-04-09T11:21:04.937Z,101308.81
2023-04-09T11:23:32.861Z,101313.63
2023-04-09T11:26:01.752Z,101312.88
2023-04-09T11:28:30.329Z,101298.81
2023-04-09T11:30:57.891Z,101313.59
2023-04-09T11:33:32.298Z,101311.13
2023-04-09T11:35:59.652Z,101311.06
2023-04-09T11:38:27.317Z,101304.31
2023-04-09T11:40:58.205Z,101316.69
2023-04-09T11:43:25.901Z,101303.34
2023-04-09T11:45:56.469Z,101299.78
2023-04-09T11:48:24.978Z,101297.53
2023-04-09T11:50:52.642Z,101298.00
2023-04-09T11:53:20.329Z,101297.94
2023-04-09T11:55:50.990Z,101294.72
2023-04-09T11:58:18.383Z,101305.06
2023-04-09T12:00:46.276Z,101298.94
2023-04-09T12:03:16.713Z,101295.88
2023-04-09T12:05:50.654Z,101297.84
2023-04-09T12:08:23.504Z,101300.19
2023-04-09T12:10:53.208Z,101299.34
2023-04-09T12:13:21.318Z,101290.50
2023-04-09T12:15:49.719Z,101294.81
2023-04-09T12:18:18.466Z,101299.25
2023-04-09T12:20:49.545Z,101296.06
2023-04-09T12:23:17.351Z,101301.72
2023-04-09T12:25:45.218Z,101300.09
2023-04-09T12:28:13.640Z,101302.94
2023-04-09T12:30:41.062Z,101313.16
2023-04-09T12:33:10.268Z,101296.22
2023-04-09T12:35:39.730Z,101300.81
2023-04-09T12:38:07.058Z,101303.41
2023-04-09T12:40:34.661Z,101301.28
2023-04-09T12:43:02.455Z,101295.16
2023-04-09T12:45:30.315Z,101292.16
2023-04-09T12:47:58.022Z,101296.25
2023-04-09T12:50:25.433Z,101292.78
2023-04-09T12:52:54.003Z,101290.22
2023-04-09T12:55:22.115Z,101285.44
2023-04-09T12:57:50.788Z,101281.31
2023-04-09T13:00:18.060Z,101278.97
2023-04-09T13:02:45.650Z,101278.16
2023-04-09T13:05:13.083Z,101276.03
2023-04-09T13:07:42.706Z,101267.78
2023-04-09T13:10:11.879Z,101272.75
2023-04-09T13:12:39.215Z,101265.72
2023-04-09T13:15:07.511Z,101265.16
2023-04-09T13:17:34.853Z,101257.66
2023-04-09T13:20:02.231Z,101266.78
2023-04-09T13:22:29.571Z,101256.13
2023-04-09T13:24:57.292Z,101251.94
2023-04-09T13:27:25.877Z,101259.19
2023-04-09T13:29:53.136Z,101257.25
2023-04-09T13:32:21.978Z,101248.50
2023-04-09T13:34:49.301Z,101240.03
2023-04-09T13:37:16.612Z,101243.97
2023-04-09T13:39:44.029Z,101242.28
2023-04-09T13:42:14.154Z,101238.16
2023-04-09T13:44:45.173Z,101245.56
2023-04-09T13:47:13.374Z,101246.75
2023-04-09T13:49:41.222Z,101236.81
2023-04-09T13:52:08.566Z,101231.81
2023-04-09T13:54:36.073Z,101232.25
2023-04-09T13:57:03.863Z,101223.09
2023-04-09T13:59:31.151Z,101222.91
2023-04-09T14:01:59.867Z,101224.94
2023-04-09T14:04:27.613Z,101217.53
2023-04-09T14:06:54.898Z,101230.31
2023-04-09T14:09:22.145Z,101223.38
2023-04-09T14:11:49.435Z,101220.38
2023-04-09T14:14:16.730Z,101222.03
2023-04-09T14:16:44.019Z,101215.28
2023-04-09T14:19:12.735Z,101219.31
2023-04-09T14:21:41.000Z,101212.19
2023-04-09T14:24:08.543Z,101209.38
2023-04-09T14:26:35.922Z,101223.06
2023-04-09T14:29:03.337Z,101220.34
2023-04-09T14:31:30.653Z,101215.19
2023-04-09T14:33:57.927Z,101222.16
2023-04-09T14:36:27.676Z,101210.88
2023-04-09T14:38:57.546Z,101219.53
2023-04-09T14:41:25.413Z,101219.34
2023-04-09T14:43:52.693Z,101213.44
2023-04-09T14:46:20.277Z,101211.16
2023-04-09T14:48:47.579Z,101216.19
2023-04-09T14:51:14.856Z,101206.84
2023-04-09T14:53:43.434Z,101214.03
2023-04-09T14:56:10.739Z,101212.06
2023-04-09T14:58:37.995Z,101210.28
2023-04-09T15:01:05.468Z,101207.69
2023-04-09T15:03:32.914Z,101198.06
2023-04-09T15:06:00.559Z,101202.38
2023-04-09T15:08:27.841Z,101196.88
2023-04-09T15:10:56.427Z,101205.41
2023-04-09T15:13:24.044Z,101202.38
2023-04-09T15:15:51.343Z,101196.56
2023-04-09T15:18:21.320Z,101201.50
2023-04-09T15:20:49.384Z,101189.78
2023-04-09T15:23:16.662Z,101197.31
2023-04-09T15:25:43.928Z,101187.16
2023-04-09T15:28:12.485Z,101190.75
2023-04-09T15:30:40.896Z,101189.19
2023-04-09T15:33:08.371Z,101188.28
2023-04-09T15:35:36.238Z,101188.38
2023-04-09T15:38:03.525Z,101178.31
2023-04-09T15:40:31.080Z,101185.41
2023-04-09T15:42:58.342Z,101183.41
2023-04-09T15:45:30.078Z,101179.00
2023-04-09T15:47:57.432Z,101182.88
2023-04-09T15:50:24.815Z,101180.38
2023-04-09T15:52:52.069Z,101180.53
2023-04-09T15:55:19.358Z,101185.41
2023-04-09T15:57:46.979Z,101193.69
2023-04-09T16:00:15.334Z,101188.72
2023-04-09T16:02:44.051Z,101189.78
2023-04-09T16:05:11.324Z,101186.25
2023-04-09T16:07:39.502Z,101194.13
2023-04-09T16:10:07.312Z,101189.63
2023-04-09T16:12:34.590Z,101190.16
2023-04-09T16:15:02.284Z,101191.34
2023-04-09T16:17:31.481Z,101188.88
2023-04-09T16:20:03.618Z,101185.97
2023-04-09T16:22:31.015Z,101187.06
2023-04-09T16:24:58.269Z,101185.34
2023-04-09T16:27:25.742Z,101193.28
2023-04-09T16:29:53.044Z,101185.31
2023-04-09T16:32:20.310Z,101196.22
2023-04-09T16:34:47.777Z,101189.88
2023-04-09T16:37:16.509Z,101193.34
2023-04-09T16:39:43.770Z,101189.88
2023-04-09T16:42:12.042Z,101195.13
2023-04-09T16:44:39.307Z,101192.91
2023-04-09T16:47:08.158Z,101188.13
2023-04-09T16:49:35.450Z,101185.09
2023-04-09T16:52:02.712Z,101185.78
2023-04-09T16:54:31.931Z,101184.69
2023-04-09T16:56:59.190Z,101193.19
2023-04-09T16:59:26.455Z,101190.91
2023-04-09T17:01:53.834Z,101189.41
2023-04-09T17:04:21.284Z,101197.19
2023-04-09T17:06:48.599Z,101196.97
2023-04-09T17:09:16.285Z,101199.13
2023-04-09T17:11:45.024Z,101200.63
2023-04-09T17:14:12.302Z,101206.75
2023-04-09T17:16:39.619Z,101210.97
2023-04-09T17:19:08.782Z,101206.03
2023-04-09T17:21:36.382Z,101206.53
2023-04-09T17:24:03.638Z,101206.03
2023-04-09T17:26:31.022Z,101210.13
2023-04-09T17:28:59.626Z,101214.31
2023-04-09T17:31:27.775Z,101205.13
2023-04-09T17:33:55.778Z,101214.50
2023-04-09T17:36:23.369Z,101212.63
2023-04-09T17:38:52.075Z,101225.56
2023-04-09T17:41:21.495Z,101220.47
2023-04-09T17:43:48.798Z,101219.97
2023-04-09T17:46:18.096Z,101215.91
2023-04-09T17:48:45.588Z,101220.34
2023-04-09T17:51:14.871Z,101221.88
2023-04-09T17:53:42.160Z,101219.97
2023-04-09T17:56:10.997Z,101218.75
2023-04-09T17:58:38.234Z,101219.44
2023-04-09T18:01:07.575Z,101223.84
2023-04-09T18:03:36.538Z,101222.38
2023-04-09T18:06:04.052Z,101221.84
2023-04-09T18:08:31.526Z,101227.16
2023-04-09T18:11:11.404Z,101234.84
2023-04-09T18:13:40.236Z,101234.09
2023-04-09T18:16:09.297Z,101228.91
2023-04-09T18:18:37.933Z,101223.50
2023-04-09T18:21:06.028Z,101234.72
2023-04-09T18:23:33.482Z,101235.06
2023-04-09T18:26:00.755Z,101227.84
2023-04-09T18:28:28.080Z,101236.41
2023-04-09T18:30:55.500Z,101240.44
2023-04-09T18:33:22.838Z,101237.34
2023-04-09T18:35:51.531Z,101245.63
2023-04-09T18:38:18.852Z,101253.31
2023-04-09T18:40:46.226Z,101250.22
2023-04-09T18:43:13.751Z,101258.78
2023-04-09T18:45:41.670Z,101260.03
2023-04-09T18:48:09.040Z,101264.84
2023-04-09T18:50:36.664Z,101261.47
2023-04-09T18:53:06.575Z,101269.34
2023-04-09T18:55:35.786Z,101270.50
2023-04-09T18:58:03.457Z,101261.47
2023-04-09T19:00:31.101Z,101266.00
2023-04-09T19:02:58.500Z,101265.78
2023-04-09T19:05:26.640Z,101260.53
2023-04-09T19:07:58.351Z,101254.94
2023-04-09T19:10:27.117Z,101255.31
2023-04-09T19:12:54.573Z,101245.56
2023-04-09T19:15:22.319Z,101251.84
2023-04-09T19:17:49.640Z,101248.94
2023-04-09T19:20:17.025Z,101258.94
2023-04-09T19:22:46.770Z,101249.03
2023-04-09T19:25:14.206Z,101248.81
2023-04-09T19:27:42.788Z,101255.69
2023-04-09T19:30:10.561Z,101255.28
2023-04-09T19:32:38.226Z,101256.97
2023-04-09T19:35:07.829Z,101247.75
2023-04-09T19:37:35.264Z,101253.66
2023-04-09T19:40:04.719Z,101259.72
2023-04-09T19:42:32.698Z,101265.53
2023-04-09T19:45:01.293Z,101256.03
2023-04-09T19:47:29.072Z,101255.31
2023-04-09T19:49:57.211Z,101252.47
2023-04-09T19:52:24.477Z,101251.94
2023-04-09T19:54:54.375Z,101250.19
2023-04-09T19:57:24.113Z,101256.28
2023-04-09T19:59:52.195Z,101249.94
2023-04-09T20:02:21.056Z,101247.50
2023-04-09T20:04:48.441Z,101251.25
2023-04-09T20:07:16.386Z,101251.84
2023-04-09T20:09:43.717Z,101256.66
2023-04-09T20:12:11.135Z,101259.50
2023-04-09T20:14:39.381Z,101266.72
2023-04-09T20:17:08.781Z,101261.53
2023-04-09T20:19:37.706Z,101266.56
2023-04-09T20:22:05.235Z,101268.16
2023-04-09T20:24:33.961Z,101264.00
2023-04-09T20:27:01.526Z,101259.31
2023-04-09T20:29:28.809Z,101268.91
2023-04-09T20:31:56.121Z,101262.47
2023-04-09T20:34:26.658Z,101258.84
2023-04-09T20:36:55.405Z,101256.91
2023-04-09T20:39:24.856Z,101260.13
2023-04-09T20:41:52.159Z,101263.94
2023-04-09T20:44:19.571Z,101268.53
2023-04-09T21:01:19.187Z,101264.09
2023-04-09T21:03:46.674Z,101266.00
2023-04-09T21:06:14.327Z,101266.63
2023-04-09T21:08:43.463Z,101269.44
2023-04-09T21:11:10.853Z,101270.72
2023-04-09T21:13:53.061Z,101267.34
2023-04-09T21:16:23.927Z,101278.91
2023-04-09T21:18:51.511Z,101269.91
2023-04-09T21:21:19.138Z,101270.56
2023-04-09T21:23:46.392Z,101270.72
2023-04-09T21:26:14.982Z,101270.72
2023-04-09T21:28:42.324Z,101274.91
2023-04-09T21:31:10.378Z,101262.03
2023-04-09T21:33:39.825Z,101264.97
2023-04-09T21:36:08.119Z,101277.31
2023-04-09T21:38:35.726Z,101281.16
2023-04-09T21:41:03.026Z,101278.81
2023-04-09T21:43:30.342Z,101289.22
2023-04-09T21:45:58.386Z,101285.38
2023-04-09T21:48:26.385Z,101277.19
2023-04-09T21:50:55.019Z,101281.34
2023-04-09T21:53:22.286Z,101278.34
2023-04-09T21:55:49.547Z,101282.72
2023-04-09T21:58:16.840Z,101279.16
2023-04-09T22:00:44.139Z,101275.44
2023-04-09T22:03:11.766Z,101277.97
2023-04-09T22:05:39.162Z,101275.75
2023-04-09T22:08:08.187Z,101273.69
2023-04-09T22:10:35.655Z,101274.53
2023-04-09T22:13:03.284Z,101270.00
2023-04-09T22:15:30.689Z,101277.34
2023-04-09T22:17:58.038Z,101279.59
2023-04-09T22:20:26.304Z,101276.94
2023-04-09T22:22:54.001Z,101277.59
2023-04-09T22:25:22.858Z,101267.88
2023-04-09T22:27:53.435Z,101273.56
2023-04-09T22:30:23.569Z,101277.69
2023-04-09T22:32:51.400Z,101279.34
2023-04-09T22:35:18.858Z,101280.28
2023-04-09T22:37:46.941Z,101281.50
2023-04-09T22:40:15.516Z,101291.72
2023-04-09T22:42:45.019Z,101280.47
2023-04-09T22:45:12.355Z,101282.25
2023-04-09T22:47:39.809Z,101287.50
2023-04-09T22:50:07.932Z,101280.50
2023-04-09T22:52:35.332Z,101277.59
2023-04-09T22:55:02.931Z,101290.59
2023-04-09T22:57:30.621Z,101283.22
2023-04-09T22:59:59.298Z,101285.56
2023-04-09T23:02:27.251Z,101291.38
2023-04-09T23:04:54.804Z,101298.72
2023-04-09T23:07:22.084Z,101296.88
2023-04-09T23:09:49.502Z,101298.66
2023-04-09T23:12:16.776Z,101290.97
2023-04-09T23:14:44.040Z,101293.41
2023-04-09T23:17:12.635Z,101286.00
2023-04-09T23:19:39.869Z,101282.94
2023-04-09T23:22:07.538Z,101287.56
2023-04-09T23:24:34.810Z,101281.03
2023-04-09T23:27:03.993Z,101283.59
2023-04-09T23:29:31.306Z,101271.75
2023-04-09T23:31:58.937Z,101277.22
2023-04-09T23:34:27.576Z,101274.19
2023-04-09T23:36:54.863Z,101272.84
2023-04-09T23:39:22.172Z,101270.81
2023-04-09T23:41:49.441Z,101267.41
2023-04-09T23:44:16.699Z,101276.53
2023-04-09T23:46:43.965Z,101274.13
2023-04-09T23:49:11.275Z,101272.97
2023-04-09T23:51:39.854Z,101273.69
2023-04-09T23:54:07.108Z,101271.63
2023-04-09T23:56:34.364Z,101273.75
2023-04-09T23:59:01.723Z,101275.00
